sensor_id;sensor_type;location;lat;lon;timestamp;temperature;humidity
63771;DHT22;60282;43.862;18.430;2023-06-22T00:02:17;21.10;99.90
63771;DHT22;60282;43.862;18.430;2023-06-22T00:04:43;21.00;99.90
63771;DHT22;60282;43.862;18.430;2023-06-22T00:07:09;20.90;99.90
63771;DHT22;60282;43.862;18.430;2023-06-22T00:09:35;20.80;99.90
63771;DHT22;60282;43.862;18.430;2023-06-22T00:12:01;20.70;99.90
63771;DHT22;60282;43.862;18.430;2023-06-22T00:14:27;20.70;99.90
63771;DHT22;60282;43.862;18.430;2023-06-22T00:16:52;20.70;99.90
63771;DHT22;60282;43.862;18.430;2023-06-22T00:19:23;20.80;99.90
63771;DHT22;60282;43.862;18.430;2023-06-22T00:21:51;20.80;99.90
63771;DHT22;60282;43.862;18.430;2023-06-22T00:24:24;20.70;99.90
63771;DHT22;60282;43.862;18.430;2023-06-22T00:26:49;20.70;99.90
63771;DHT22;60282;43.862;18.430;2023-06-22T00:29:15;20.60;99.90
63771;DHT22;60282;43.862;18.430;2023-06-22T00:31:41;20.50;99.90
63771;DHT22;60282;43.862;18.430;2023-06-22T00:34:08;20.50;99.90
63771;DHT22;60282;43.862;18.430;2023-06-22T00:36:35;20.40;99.90
63771;DHT22;60282;43.862;18.430;2023-06-22T00:39:01;20.40;99.90
63771;DHT22;60282;43.862;18.430;2023-06-22T00:41:27;20.50;99.90
63771;DHT22;60282;43.862;18.430;2023-06-22T00:43:56;20.40;99.90
63771;DHT22;60282;43.862;18.430;2023-06-22T00:46:22;20.50;99.90
63771;DHT22;60282;43.862;18.430;2023-06-22T00:48:48;20.50;99.90
63771;DHT22;60282;43.862;18.430;2023-06-22T00:51:15;20.50;99.90
63771;DHT22;60282;43.862;18.430;2023-06-22T00:53:41;20.50;99.90
63771;DHT22;60282;43.862;18.430;2023-06-22T00:56:08;20.60;99.90
63771;DHT22;60282;43.862;18.430;2023-06-22T00:58:36;20.60;99.90
63771;DHT22;60282;43.862;18.430;2023-06-22T01:01:02;20.80;99.90
63771;DHT22;60282;43.862;18.430;2023-06-22T01:03:28;20.80;99.90
63771;DHT22;60282;43.862;18.430;2023-06-22T01:06:04;20.80;99.90
63771;DHT22;60282;43.862;18.430;2023-06-22T01:08:38;20.70;99.90
63771;DHT22;60282;43.862;18.430;2023-06-22T01:11:17;20.80;99.90
63771;DHT22;60282;43.862;18.430;2023-06-22T01:16:46;21.20;99.90
63771;DHT22;60282;43.862;18.430;2023-06-22T01:21:58;20.80;99.90
63771;DHT22;60282;43.862;18.430;2023-06-22T01:29:56;21.00;99.90
63771;DHT22;60282;43.862;18.430;2023-06-22T01:32:32;20.80;99.90
63771;DHT22;60282;43.862;18.430;2023-06-22T01:35:00;20.80;99.90
63771;DHT22;60282;43.862;18.430;2023-06-22T01:37:27;20.40;99.90
63771;DHT22;60282;43.862;18.430;2023-06-22T01:39:55;20.70;99.90
63771;DHT22;60282;43.862;18.430;2023-06-22T01:42:23;20.80;99.90
63771;DHT22;60282;43.862;18.430;2023-06-22T01:44:49;20.60;99.90
63771;DHT22;60282;43.862;18.430;2023-06-22T01:47:16;20.40;99.90
63771;DHT22;60282;43.862;18.430;2023-06-22T01:49:43;20.70;99.90
63771;DHT22;60282;43.862;18.430;2023-06-22T01:52:09;20.20;99.90
63771;DHT22;60282;43.862;18.430;2023-06-22T01:54:35;20.10;99.90
63771;DHT22;60282;43.862;18.430;2023-06-22T01:57:01;20.20;99.90
63771;DHT22;60282;43.862;18.430;2023-06-22T01:59:34;20.40;99.90
63771;DHT22;60282;43.862;18.430;2023-06-22T02:02:05;20.40;99.90
63771;DHT22;60282;43.862;18.430;2023-06-22T02:07:09;20.20;99.90
63771;DHT22;60282;43.862;18.430;2023-06-22T02:09:38;20.10;99.90
63771;DHT22;60282;43.862;18.430;2023-06-22T02:12:06;20.00;99.90
63771;DHT22;60282;43.862;18.430;2023-06-22T02:14:33;19.90;99.90
63771;DHT22;60282;43.862;18.430;2023-06-22T02:17:00;19.90;99.90
63771;DHT22;60282;43.862;18.430;2023-06-22T02:19:27;19.90;99.90
63771;DHT22;60282;43.862;18.430;2023-06-22T02:21:53;19.90;99.90
63771;DHT22;60282;43.862;18.430;2023-06-22T02:24:18;19.80;99.90
63771;DHT22;60282;43.862;18.430;2023-06-22T02:26:44;19.80;99.90
63771;DHT22;60282;43.862;18.430;2023-06-22T02:29:11;19.80;99.90
63771;DHT22;60282;43.862;18.430;2023-06-22T02:31:37;19.90;99.90
63771;DHT22;60282;43.862;18.430;2023-06-22T02:34:02;19.90;99.90
63771;DHT22;60282;43.862;18.430;2023-06-22T02:36:28;19.80;99.90
63771;DHT22;60282;43.862;18.430;2023-06-22T02:38:57;19.80;99.90
63771;DHT22;60282;43.862;18.430;2023-06-22T02:41:25;19.90;99.90
63771;DHT22;60282;43.862;18.430;2023-06-22T02:43:51;19.80;99.90
63771;DHT22;60282;43.862;18.430;2023-06-22T02:46:16;19.90;99.90
63771;DHT22;60282;43.862;18.430;2023-06-22T02:48:42;19.80;99.90
63771;DHT22;60282;43.862;18.430;2023-06-22T02:51:08;20.00;99.90
63771;DHT22;60282;43.862;18.430;2023-06-22T02:53:34;20.00;99.90
63771;DHT22;60282;43.862;18.430;2023-06-22T02:56:02;20.20;99.90
63771;DHT22;60282;43.862;18.430;2023-06-22T02:58:31;20.30;99.90
63771;DHT22;60282;43.862;18.430;2023-06-22T03:01:06;20.30;99.90
63771;DHT22;60282;43.862;18.430;2023-06-22T03:03:32;20.20;99.90
63771;DHT22;60282;43.862;18.430;2023-06-22T03:05:58;20.50;99.90
63771;DHT22;60282;43.862;18.430;2023-06-22T03:08:23;20.40;99.90
63771;DHT22;60282;43.862;18.430;2023-06-22T03:10:49;20.40;99.90
63771;DHT22;60282;43.862;18.430;2023-06-22T03:13:15;20.50;99.90
63771;DHT22;60282;43.862;18.430;2023-06-22T03:15:42;20.40;99.90
63771;DHT22;60282;43.862;18.430;2023-06-22T03:18:07;20.30;99.90
63771;DHT22;60282;43.862;18.430;2023-06-22T03:20:33;20.10;99.90
63771;DHT22;60282;43.862;18.430;2023-06-22T03:22:59;20.20;99.90
63771;DHT22;60282;43.862;18.430;2023-06-22T03:25:25;20.60;99.90
63771;DHT22;60282;43.862;18.430;2023-06-22T03:27:51;20.80;99.90
63771;DHT22;60282;43.862;18.430;2023-06-22T03:30:16;20.70;99.90
63771;DHT22;60282;43.862;18.430;2023-06-22T03:32:42;20.80;99.90
63771;DHT22;60282;43.862;18.430;2023-06-22T03:35:09;20.80;99.90
63771;DHT22;60282;43.862;18.430;2023-06-22T03:37:35;20.70;99.90
63771;DHT22;60282;43.862;18.430;2023-06-22T03:40:01;20.70;99.90
63771;DHT22;60282;43.862;18.430;2023-06-22T03:42:30;20.60;99.90
63771;DHT22;60282;43.862;18.430;2023-06-22T03:44:56;20.30;99.90
63771;DHT22;60282;43.862;18.430;2023-06-22T03:47:22;20.30;99.90
63771;DHT22;60282;43.862;18.430;2023-06-22T03:49:48;20.30;99.90
63771;DHT22;60282;43.862;18.430;2023-06-22T03:52:13;20.20;99.90
63771;DHT22;60282;43.862;18.430;2023-06-22T03:54:39;20.40;99.90
63771;DHT22;60282;43.862;18.430;2023-06-22T03:57:05;19.20;99.90
63771;DHT22;60282;43.862;18.430;2023-06-22T03:59:31;20.20;99.90
63771;DHT22;60282;43.862;18.430;2023-06-22T04:01:57;20.30;99.90
63771;DHT22;60282;43.862;18.430;2023-06-22T04:04:23;20.30;99.90
63771;DHT22;60282;43.862;18.430;2023-06-22T04:06:49;20.30;99.90
63771;DHT22;60282;43.862;18.430;2023-06-22T04:09:14;20.40;99.90
63771;DHT22;60282;43.862;18.430;2023-06-22T04:11:40;20.50;99.90
63771;DHT22;60282;43.862;18.430;2023-06-22T04:14:06;20.40;99.90
63771;DHT22;60282;43.862;18.430;2023-06-22T04:16:32;20.60;99.90
63771;DHT22;60282;43.862;18.430;2023-06-22T04:18:58;20.60;99.90
63771;DHT22;60282;43.862;18.430;2023-06-22T04:21:24;20.70;99.90
63771;DHT22;60282;43.862;18.430;2023-06-22T04:23:49;20.80;99.90
63771;DHT22;60282;43.862;18.430;2023-06-22T04:26:15;20.90;99.90
63771;DHT22;60282;43.862;18.430;2023-06-22T04:28:41;21.10;99.90
63771;DHT22;60282;43.862;18.430;2023-06-22T04:31:07;21.10;99.90
63771;DHT22;60282;43.862;18.430;2023-06-22T04:33:32;21.30;99.90
63771;DHT22;60282;43.862;18.430;2023-06-22T04:35:59;21.50;99.90
63771;DHT22;60282;43.862;18.430;2023-06-22T04:38:26;21.60;99.90
63771;DHT22;60282;43.862;18.430;2023-06-22T04:40:52;21.60;99.90
63771;DHT22;60282;43.862;18.430;2023-06-22T04:43:19;21.70;99.90
63771;DHT22;60282;43.862;18.430;2023-06-22T04:45:45;21.80;99.90
63771;DHT22;60282;43.862;18.430;2023-06-22T04:48:10;21.80;99.90
63771;DHT22;60282;43.862;18.430;2023-06-22T04:50:41;21.70;99.90
63771;DHT22;60282;43.862;18.430;2023-06-22T04:53:07;21.80;99.90
63771;DHT22;60282;43.862;18.430;2023-06-22T04:55:35;21.80;99.90
63771;DHT22;60282;43.862;18.430;2023-06-22T04:58:03;21.90;99.90
63771;DHT22;60282;43.862;18.430;2023-06-22T05:00:30;21.90;99.90
63771;DHT22;60282;43.862;18.430;2023-06-22T05:02:56;22.00;99.90
63771;DHT22;60282;43.862;18.430;2023-06-22T05:05:23;22.00;99.90
63771;DHT22;60282;43.862;18.430;2023-06-22T05:07:51;22.10;99.90
63771;DHT22;60282;43.862;18.430;2023-06-22T05:10:19;22.10;99.90
63771;DHT22;60282;43.862;18.430;2023-06-22T05:12:46;22.20;99.90
63771;DHT22;60282;43.862;18.430;2023-06-22T05:15:12;22.20;99.90
63771;DHT22;60282;43.862;18.430;2023-06-22T05:17:38;22.30;99.90
63771;DHT22;60282;43.862;18.430;2023-06-22T05:20:12;22.40;99.90
63771;DHT22;60282;43.862;18.430;2023-06-22T05:22:39;22.50;99.90
63771;DHT22;60282;43.862;18.430;2023-06-22T05:25:09;22.70;99.90
63771;DHT22;60282;43.862;18.430;2023-06-22T05:27:36;22.80;99.90
63771;DHT22;60282;43.862;18.430;2023-06-22T05:30:06;22.70;99.90
63771;DHT22;60282;43.862;18.430;2023-06-22T05:32:32;22.40;99.90
63771;DHT22;60282;43.862;18.430;2023-06-22T05:34:59;22.40;99.90
63771;DHT22;60282;43.862;18.430;2023-06-22T05:37:25;22.60;99.90
63771;DHT22;60282;43.862;18.430;2023-06-22T05:39:51;22.60;99.90
63771;DHT22;60282;43.862;18.430;2023-06-22T05:42:17;22.70;99.90
63771;DHT22;60282;43.862;18.430;2023-06-22T05:44:43;22.80;99.90
63771;DHT22;60282;43.862;18.430;2023-06-22T05:47:08;22.90;99.90
63771;DHT22;60282;43.862;18.430;2023-06-22T05:49:34;23.00;99.90
63771;DHT22;60282;43.862;18.430;2023-06-22T05:52:00;23.10;99.90
63771;DHT22;60282;43.862;18.430;2023-06-22T05:54:29;23.20;99.90
63771;DHT22;60282;43.862;18.430;2023-06-22T05:56:55;22.00;99.90
63771;DHT22;60282;43.862;18.430;2023-06-22T05:59:21;23.40;99.90
63771;DHT22;60282;43.862;18.430;2023-06-22T06:01:46;23.50;99.90
63771;DHT22;60282;43.862;18.430;2023-06-22T06:04:18;23.60;99.90
63771;DHT22;60282;43.862;18.430;2023-06-22T06:06:44;23.70;99.90
63771;DHT22;60282;43.862;18.430;2023-06-22T06:09:10;23.80;99.90
63771;DHT22;60282;43.862;18.430;2023-06-22T06:11:37;23.70;99.90
63771;DHT22;60282;43.862;18.430;2023-06-22T06:14:03;23.90;99.90
63771;DHT22;60282;43.862;18.430;2023-06-22T06:16:29;24.00;99.90
63771;DHT22;60282;43.862;18.430;2023-06-22T06:18:55;24.10;99.90
63771;DHT22;60282;43.862;18.430;2023-06-22T06:21:21;24.20;99.90
63771;DHT22;60282;43.862;18.430;2023-06-22T06:23:47;24.50;99.90
63771;DHT22;60282;43.862;18.430;2023-06-22T06:26:13;24.50;99.90
63771;DHT22;60282;43.862;18.430;2023-06-22T06:28:42;24.60;99.90
63771;DHT22;60282;43.862;18.430;2023-06-22T06:31:08;24.70;99.90
63771;DHT22;60282;43.862;18.430;2023-06-22T06:33:35;24.70;99.90
63771;DHT22;60282;43.862;18.430;2023-06-22T06:36:01;24.70;99.90
63771;DHT22;60282;43.862;18.430;2023-06-22T06:38:31;24.60;99.90
63771;DHT22;60282;43.862;18.430;2023-06-22T06:40:58;24.60;99.90
63771;DHT22;60282;43.862;18.430;2023-06-22T06:43:23;24.60;99.90
63771;DHT22;60282;43.862;18.430;2023-06-22T06:45:50;24.70;99.90
63771;DHT22;60282;43.862;18.430;2023-06-22T06:48:16;24.80;99.90
63771;DHT22;60282;43.862;18.430;2023-06-22T06:50:43;24.90;99.90
63771;DHT22;60282;43.862;18.430;2023-06-22T06:53:09;25.00;99.90
63771;DHT22;60282;43.862;18.430;2023-06-22T06:55:35;24.80;99.90
63771;DHT22;60282;43.862;18.430;2023-06-22T06:58:02;25.00;99.90
63771;DHT22;60282;43.862;18.430;2023-06-22T07:00:30;25.10;99.90
63771;DHT22;60282;43.862;18.430;2023-06-22T07:02:55;25.20;99.90
63771;DHT22;60282;43.862;18.430;2023-06-22T07:05:21;25.30;99.90
63771;DHT22;60282;43.862;18.430;2023-06-22T07:07:47;25.50;99.90
63771;DHT22;60282;43.862;18.430;2023-06-22T07:10:13;25.50;99.90
63771;DHT22;60282;43.862;18.430;2023-06-22T07:12:38;25.50;99.90
63771;DHT22;60282;43.862;18.430;2023-06-22T07:15:05;25.70;99.90
63771;DHT22;60282;43.862;18.430;2023-06-22T07:17:34;25.80;99.90
63771;DHT22;60282;43.862;18.430;2023-06-22T07:20:00;26.00;99.90
63771;DHT22;60282;43.862;18.430;2023-06-22T07:22:26;26.00;99.90
63771;DHT22;60282;43.862;18.430;2023-06-22T07:24:52;26.10;99.90
63771;DHT22;60282;43.862;18.430;2023-06-22T07:27:18;26.30;99.90
63771;DHT22;60282;43.862;18.430;2023-06-22T07:29:45;26.30;99.90
63771;DHT22;60282;43.862;18.430;2023-06-22T07:32:11;26.40;99.90
63771;DHT22;60282;43.862;18.430;2023-06-22T07:34:37;26.60;99.90
63771;DHT22;60282;43.862;18.430;2023-06-22T07:37:03;26.70;99.90
63771;DHT22;60282;43.862;18.430;2023-06-22T07:39:30;26.70;99.90
63771;DHT22;60282;43.862;18.430;2023-06-22T07:41:56;26.70;99.90
63771;DHT22;60282;43.862;18.430;2023-06-22T07:44:22;26.80;99.90
63771;DHT22;60282;43.862;18.430;2023-06-22T07:46:48;26.80;99.90
63771;DHT22;60282;43.862;18.430;2023-06-22T07:49:14;27.00;99.90
63771;DHT22;60282;43.862;18.430;2023-06-22T07:51:39;27.00;99.90
63771;DHT22;60282;43.862;18.430;2023-06-22T07:54:05;27.20;99.90
63771;DHT22;60282;43.862;18.430;2023-06-22T07:56:31;27.40;99.90
63771;DHT22;60282;43.862;18.430;2023-06-22T07:58:58;27.30;99.90
63771;DHT22;60282;43.862;18.430;2023-06-22T08:01:26;27.50;99.90
63771;DHT22;60282;43.862;18.430;2023-06-22T08:03:52;27.70;99.90
63771;DHT22;60282;43.862;18.430;2023-06-22T08:06:17;27.90;99.90
63771;DHT22;60282;43.862;18.430;2023-06-22T08:08:43;27.90;99.90
63771;DHT22;60282;43.862;18.430;2023-06-22T08:11:09;27.80;99.90
63771;DHT22;60282;43.862;18.430;2023-06-22T08:13:35;28.00;99.90
63771;DHT22;60282;43.862;18.430;2023-06-22T08:16:00;28.10;99.90
63771;DHT22;60282;43.862;18.430;2023-06-22T08:18:26;28.30;99.90
63771;DHT22;60282;43.862;18.430;2023-06-22T08:20:52;28.50;99.90
63771;DHT22;60282;43.862;18.430;2023-06-22T08:23:18;28.70;99.90
63771;DHT22;60282;43.862;18.430;2023-06-22T08:25:43;28.50;99.90
63771;DHT22;60282;43.862;18.430;2023-06-22T08:28:09;28.50;99.90
63771;DHT22;60282;43.862;18.430;2023-06-22T08:30:35;28.80;99.90
63771;DHT22;60282;43.862;18.430;2023-06-22T08:33:01;28.90;99.90
63771;DHT22;60282;43.862;18.430;2023-06-22T08:35:27;28.90;99.90
63771;DHT22;60282;43.862;18.430;2023-06-22T08:37:53;28.70;99.90
63771;DHT22;60282;43.862;18.430;2023-06-22T08:40:21;29.70;99.90
63771;DHT22;60282;43.862;18.430;2023-06-22T08:42:48;29.00;99.90
63771;DHT22;60282;43.862;18.430;2023-06-22T08:45:14;29.10;99.90
63771;DHT22;60282;43.862;18.430;2023-06-22T08:47:41;29.30;99.90
63771;DHT22;60282;43.862;18.430;2023-06-22T08:50:08;29.30;99.90
63771;DHT22;60282;43.862;18.430;2023-06-22T08:52:34;29.40;99.90
63771;DHT22;60282;43.862;18.430;2023-06-22T08:55:00;29.70;99.90
63771;DHT22;60282;43.862;18.430;2023-06-22T08:57:27;29.30;99.90
63771;DHT22;60282;43.862;18.430;2023-06-22T08:59:52;29.40;99.90
63771;DHT22;60282;43.862;18.430;2023-06-22T09:02:19;29.30;99.90
63771;DHT22;60282;43.862;18.430;2023-06-22T09:04:46;29.60;99.90
63771;DHT22;60282;43.862;18.430;2023-06-22T09:07:11;29.80;99.90
63771;DHT22;60282;43.862;18.430;2023-06-22T09:09:37;29.70;99.90
63771;DHT22;60282;43.862;18.430;2023-06-22T09:12:04;30.00;99.90
63771;DHT22;60282;43.862;18.430;2023-06-22T09:14:29;30.20;99.90
63771;DHT22;60282;43.862;18.430;2023-06-22T09:16:55;30.30;99.90
63771;DHT22;60282;43.862;18.430;2023-06-22T09:19:21;30.60;99.90
63771;DHT22;60282;43.862;18.430;2023-06-22T09:21:47;30.80;99.90
63771;DHT22;60282;43.862;18.430;2023-06-22T09:24:13;30.60;99.90
63771;DHT22;60282;43.862;18.430;2023-06-22T09:26:39;30.70;99.90
63771;DHT22;60282;43.862;18.430;2023-06-22T09:29:05;30.40;99.90
63771;DHT22;60282;43.862;18.430;2023-06-22T09:31:31;30.40;99.90
63771;DHT22;60282;43.862;18.430;2023-06-22T09:33:57;30.50;99.90
63771;DHT22;60282;43.862;18.430;2023-06-22T09:36:23;30.20;99.90
63771;DHT22;60282;43.862;18.430;2023-06-22T09:38:49;30.50;99.90
63771;DHT22;60282;43.862;18.430;2023-06-22T09:41:20;30.70;99.90
63771;DHT22;60282;43.862;18.430;2023-06-22T09:43:46;30.90;99.90
63771;DHT22;60282;43.862;18.430;2023-06-22T09:46:17;31.20;99.90
63771;DHT22;60282;43.862;18.430;2023-06-22T09:48:43;31.30;99.90
63771;DHT22;60282;43.862;18.430;2023-06-22T09:51:09;31.30;99.90
63771;DHT22;60282;43.862;18.430;2023-06-22T09:53:34;31.10;99.90
63771;DHT22;60282;43.862;18.430;2023-06-22T09:56:04;31.40;99.90
63771;DHT22;60282;43.862;18.430;2023-06-22T09:58:31;31.60;99.90
63771;DHT22;60282;43.862;18.430;2023-06-22T10:00:57;31.80;99.80
63771;DHT22;60282;43.862;18.430;2023-06-22T10:03:23;31.90;99.50
63771;DHT22;60282;43.862;18.430;2023-06-22T10:05:49;32.00;99.40
63771;DHT22;60282;43.862;18.430;2023-06-22T10:08:14;32.10;98.50
63771;DHT22;60282;43.862;18.430;2023-06-22T10:10:40;31.90;98.20
63771;DHT22;60282;43.862;18.430;2023-06-22T10:13:10;32.10;98.50
63771;DHT22;60282;43.862;18.430;2023-06-22T10:15:36;32.30;98.60
63771;DHT22;60282;43.862;18.430;2023-06-22T10:18:02;32.60;98.60
63771;DHT22;60282;43.862;18.430;2023-06-22T10:20:28;35.30;98.10
63771;DHT22;60282;43.862;18.430;2023-06-22T10:22:54;32.90;96.80
63771;DHT22;60282;43.862;18.430;2023-06-22T10:25:20;32.80;96.00
63771;DHT22;60282;43.862;18.430;2023-06-22T10:27:45;33.00;95.80
63771;DHT22;60282;43.862;18.430;2023-06-22T10:30:12;33.10;95.20
63771;DHT22;60282;43.862;18.430;2023-06-22T10:32:39;33.30;94.20
63771;DHT22;60282;43.862;18.430;2023-06-22T10:35:05;33.20;93.90
63771;DHT22;60282;43.862;18.430;2023-06-22T10:37:31;33.10;93.80
63771;DHT22;60282;43.862;18.430;2023-06-22T10:39:57;33.20;94.10
63771;DHT22;60282;43.862;18.430;2023-06-22T10:42:23;33.40;93.60
63771;DHT22;60282;43.862;18.430;2023-06-22T10:44:49;33.60;94.50
63771;DHT22;60282;43.862;18.430;2023-06-22T10:47:15;33.80;93.50
63771;DHT22;60282;43.862;18.430;2023-06-22T10:49:41;33.90;91.90
63771;DHT22;60282;43.862;18.430;2023-06-22T10:52:08;33.80;91.20
63771;DHT22;60282;43.862;18.430;2023-06-22T10:54:37;34.10;91.40
63771;DHT22;60282;43.862;18.430;2023-06-22T10:57:03;33.90;90.80
63771;DHT22;60282;43.862;18.430;2023-06-22T10:59:29;33.90;91.20
63771;DHT22;60282;43.862;18.430;2023-06-22T11:01:58;33.80;90.70
63771;DHT22;60282;43.862;18.430;2023-06-22T11:04:24;33.90;91.00
63771;DHT22;60282;43.862;18.430;2023-06-22T11:06:50;34.20;90.70
63771;DHT22;60282;43.862;18.430;2023-06-22T11:09:16;35.30;87.70
63771;DHT22;60282;43.862;18.430;2023-06-22T11:11:49;34.80;84.80
63771;DHT22;60282;43.862;18.430;2023-06-22T11:14:15;35.00;82.90
63771;DHT22;60282;43.862;18.430;2023-06-22T11:16:41;35.20;82.20
63771;DHT22;60282;43.862;18.430;2023-06-22T11:19:07;35.40;82.10
63771;DHT22;60282;43.862;18.430;2023-06-22T11:21:33;35.70;82.10
63771;DHT22;60282;43.862;18.430;2023-06-22T11:24:00;35.80;80.80
63771;DHT22;60282;43.862;18.430;2023-06-22T11:26:26;36.00;77.80
63771;DHT22;60282;43.862;18.430;2023-06-22T11:28:53;36.30;78.10
63771;DHT22;60282;43.862;18.430;2023-06-22T11:31:19;36.80;76.60
63771;DHT22;60282;43.862;18.430;2023-06-22T11:33:45;36.70;74.50
63771;DHT22;60282;43.862;18.430;2023-06-22T11:36:12;36.70;73.90
63771;DHT22;60282;43.862;18.430;2023-06-22T11:38:37;36.90;73.20
63771;DHT22;60282;43.862;18.430;2023-06-22T11:41:06;37.00;73.30
63771;DHT22;60282;43.862;18.430;2023-06-22T11:43:31;37.50;71.40
63771;DHT22;60282;43.862;18.430;2023-06-22T11:45:57;37.80;70.60
63771;DHT22;60282;43.862;18.430;2023-06-22T11:48:24;38.20;69.10
63771;DHT22;60282;43.862;18.430;2023-06-22T11:50:50;38.50;65.80
63771;DHT22;60282;43.862;18.430;2023-06-22T11:53:16;38.90;66.20
63771;DHT22;60282;43.862;18.430;2023-06-22T11:55:43;39.30;63.00
63771;DHT22;60282;43.862;18.430;2023-06-22T11:58:09;39.60;62.40
63771;DHT22;60282;43.862;18.430;2023-06-22T12:00:35;39.80;63.80
63771;DHT22;60282;43.862;18.430;2023-06-22T12:03:01;41.20;63.70
63771;DHT22;60282;43.862;18.430;2023-06-22T12:05:27;40.10;62.50
63771;DHT22;60282;43.862;18.430;2023-06-22T12:07:53;40.50;60.90
63771;DHT22;60282;43.862;18.430;2023-06-22T12:10:21;40.50;58.90
63771;DHT22;60282;43.862;18.430;2023-06-22T12:12:47;40.40;56.60
63771;DHT22;60282;43.862;18.430;2023-06-22T12:15:12;40.70;55.60
63771;DHT22;60282;43.862;18.430;2023-06-22T12:17:38;40.40;56.60
63771;DHT22;60282;43.862;18.430;2023-06-22T12:20:05;40.60;57.00
63771;DHT22;60282;43.862;18.430;2023-06-22T12:22:34;40.50;58.20
63771;DHT22;60282;43.862;18.430;2023-06-22T12:25:00;40.50;57.10
63771;DHT22;60282;43.862;18.430;2023-06-22T12:27:29;40.70;55.50
63771;DHT22;60282;43.862;18.430;2023-06-22T12:29:58;40.70;52.90
63771;DHT22;60282;43.862;18.430;2023-06-22T12:32:23;41.00;53.20
63771;DHT22;60282;43.862;18.430;2023-06-22T12:34:49;41.40;52.80
63771;DHT22;60282;43.862;18.430;2023-06-22T12:37:15;41.70;53.50
63771;DHT22;60282;43.862;18.430;2023-06-22T12:39:41;41.80;54.40
63771;DHT22;60282;43.862;18.430;2023-06-22T12:42:07;41.80;53.90
63771;DHT22;60282;43.862;18.430;2023-06-22T12:44:37;42.10;53.60
63771;DHT22;60282;43.862;18.430;2023-06-22T12:47:03;42.00;53.20
63771;DHT22;60282;43.862;18.430;2023-06-22T12:49:29;41.70;54.00
63771;DHT22;60282;43.862;18.430;2023-06-22T12:51:55;42.20;53.10
63771;DHT22;60282;43.862;18.430;2023-06-22T12:54:21;42.80;52.90
63771;DHT22;60282;43.862;18.430;2023-06-22T12:56:47;42.70;52.20
63771;DHT22;60282;43.862;18.430;2023-06-22T12:59:12;43.20;53.30
63771;DHT22;60282;43.862;18.430;2023-06-22T13:01:38;43.40;51.50
63771;DHT22;60282;43.862;18.430;2023-06-22T13:04:04;43.30;51.50
63771;DHT22;60282;43.862;18.430;2023-06-22T13:06:30;42.70;51.60
63771;DHT22;60282;43.862;18.430;2023-06-22T13:08:56;42.50;52.20
63771;DHT22;60282;43.862;18.430;2023-06-22T13:11:22;42.90;51.70
63771;DHT22;60282;43.862;18.430;2023-06-22T13:13:47;42.80;52.00
63771;DHT22;60282;43.862;18.430;2023-06-22T13:16:13;42.90;51.70
63771;DHT22;60282;43.862;18.430;2023-06-22T13:18:39;43.00;52.30
63771;DHT22;60282;43.862;18.430;2023-06-22T13:21:05;43.40;51.90
63771;DHT22;60282;43.862;18.430;2023-06-22T13:23:31;42.70;51.20
63771;DHT22;60282;43.862;18.430;2023-06-22T13:25:57;42.90;51.40
63771;DHT22;60282;43.862;18.430;2023-06-22T13:28:23;43.00;51.40
63771;DHT22;60282;43.862;18.430;2023-06-22T13:30:49;42.80;50.10
63771;DHT22;60282;43.862;18.430;2023-06-22T13:33:15;43.10;50.70
63771;DHT22;60282;43.862;18.430;2023-06-22T13:35:41;43.30;51.10
63771;DHT22;60282;43.862;18.430;2023-06-22T13:38:10;43.50;51.80
63771;DHT22;60282;43.862;18.430;2023-06-22T13:40:37;43.90;51.00
63771;DHT22;60282;43.862;18.430;2023-06-22T13:43:06;43.50;51.10
63771;DHT22;60282;43.862;18.430;2023-06-22T13:45:32;43.90;50.70
63771;DHT22;60282;43.862;18.430;2023-06-22T13:47:58;44.00;51.60
63771;DHT22;60282;43.862;18.430;2023-06-22T13:50:24;44.10;51.40
63771;DHT22;60282;43.862;18.430;2023-06-22T13:52:50;43.60;51.00
63771;DHT22;60282;43.862;18.430;2023-06-22T13:55:15;43.50;51.80
63771;DHT22;60282;43.862;18.430;2023-06-22T13:57:42;43.90;51.60
63771;DHT22;60282;43.862;18.430;2023-06-22T14:00:08;46.00;52.60
63771;DHT22;60282;43.862;18.430;2023-06-22T14:02:34;44.50;50.60
63771;DHT22;60282;43.862;18.430;2023-06-22T14:05:01;43.80;48.00
63771;DHT22;60282;43.862;18.430;2023-06-22T14:07:27;43.90;49.00
63771;DHT22;60282;43.862;18.430;2023-06-22T14:09:53;44.30;49.90
63771;DHT22;60282;43.862;18.430;2023-06-22T14:12:19;44.50;50.50
63771;DHT22;60282;43.862;18.430;2023-06-22T14:14:45;44.10;49.70
63771;DHT22;60282;43.862;18.430;2023-06-22T14:17:11;44.20;50.40
63771;DHT22;60282;43.862;18.430;2023-06-22T14:19:37;44.40;50.60
63771;DHT22;60282;43.862;18.430;2023-06-22T14:22:03;43.90;51.30
63771;DHT22;60282;43.862;18.430;2023-06-22T14:24:29;43.60;50.80
63771;DHT22;60282;43.862;18.430;2023-06-22T14:26:55;43.40;50.00
63771;DHT22;60282;43.862;18.430;2023-06-22T14:29:21;44.10;50.10
63771;DHT22;60282;43.862;18.430;2023-06-22T14:31:48;44.00;50.90
63771;DHT22;60282;43.862;18.430;2023-06-22T14:34:14;43.80;51.40
63771;DHT22;60282;43.862;18.430;2023-06-22T14:36:41;43.70;52.30
63771;DHT22;60282;43.862;18.430;2023-06-22T14:39:07;43.40;52.80
63771;DHT22;60282;43.862;18.430;2023-06-22T14:41:33;43.40;53.10
63771;DHT22;60282;43.862;18.430;2023-06-22T14:43:59;43.90;52.50
63771;DHT22;60282;43.862;18.430;2023-06-22T14:46:24;43.80;52.20
63771;DHT22;60282;43.862;18.430;2023-06-22T14:48:50;44.40;51.80
63771;DHT22;60282;43.862;18.430;2023-06-22T14:51:16;44.40;52.50
63771;DHT22;60282;43.862;18.430;2023-06-22T14:53:43;44.60;52.10
63771;DHT22;60282;43.862;18.430;2023-06-22T14:56:09;44.10;51.20
63771;DHT22;60282;43.862;18.430;2023-06-22T14:58:35;43.90;51.20
63771;DHT22;60282;43.862;18.430;2023-06-22T15:01:04;43.90;51.40
63771;DHT22;60282;43.862;18.430;2023-06-22T15:03:34;43.70;51.60
63771;DHT22;60282;43.862;18.430;2023-06-22T15:06:01;43.80;51.30
63771;DHT22;60282;43.862;18.430;2023-06-22T15:08:28;44.20;49.70
63771;DHT22;60282;43.862;18.430;2023-06-22T15:10:54;43.90;49.60
63771;DHT22;60282;43.862;18.430;2023-06-22T15:13:20;44.20;50.00
63771;DHT22;60282;43.862;18.430;2023-06-22T15:15:48;44.30;49.70
63771;DHT22;60282;43.862;18.430;2023-06-22T15:18:14;44.50;49.70
63771;DHT22;60282;43.862;18.430;2023-06-22T15:20:41;44.30;50.60
63771;DHT22;60282;43.862;18.430;2023-06-22T15:23:10;44.30;51.10
63771;DHT22;60282;43.862;18.430;2023-06-22T15:25:36;44.20;51.40